createdAt,value
2017-12-05T00:02:04.776Z,94.36
2017-12-05T00:04:33.099Z,94.33
2017-12-05T00:07:01.432Z,94.45
2017-12-05T00:09:30.521Z,94.52
2017-12-05T00:11:58.839Z,94.49
2017-12-05T00:14:27.182Z,94.54
2017-12-05T00:16:55.501Z,94.44
2017-12-05T00:19:23.837Z,94.30
2017-12-05T00:21:52.180Z,94.25
2017-12-05T00:24:20.511Z,94.41
2017-12-05T00:26:48.840Z,94.01
2017-12-05T00:29:17.176Z,93.91
2017-12-05T00:31:45.515Z,93.52
2017-12-05T00:34:13.850Z,93.49
2017-12-05T00:36:42.168Z,93.41
2017-12-05T00:39:10.504Z,93.39
2017-12-05T00:41:38.829Z,93.45
2017-12-05T00:44:07.139Z,93.21
2017-12-05T00:46:35.536Z,93.20
2017-12-05T00:49:03.855Z,93.06
2017-12-05T00:51:32.180Z,92.87
2017-12-05T00:54:00.509Z,93.08
2017-12-05T00:56:28.820Z,93.04
2017-12-05T00:58:57.955Z,93.24
2017-12-05T01:01:26.272Z,93.41
2017-12-05T01:03:54.605Z,93.39
2017-12-05T01:06:22.965Z,93.57
2017-12-05T01:08:51.289Z,93.48
2017-12-05T01:11:19.668Z,93.14
2017-12-05T01:13:47.968Z,92.96
2017-12-05T01:16:17.047Z,92.94
2017-12-05T01:18:45.366Z,92.71
2017-12-05T01:21:13.699Z,92.10
2017-12-05T01:23:42.040Z,91.98
2017-12-05T01:26:10.392Z,91.42
2017-12-05T01:28:39.468Z,91.36
2017-12-05T01:31:08.552Z,91.11
2017-12-05T01:33:36.890Z,91.17
2017-12-05T01:36:05.204Z,91.45
2017-12-05T01:38:33.520Z,91.13
2017-12-05T01:41:01.857Z,90.82
2017-12-05T01:43:30.184Z,90.88
2017-12-05T01:45:58.500Z,90.97
2017-12-05T01:48:26.838Z,90.89
2017-12-05T01:50:55.157Z,90.71
2017-12-05T01:53:23.503Z,90.96
2017-12-05T01:55:51.840Z,90.96
2017-12-05T01:58:20.158Z,90.94
2017-12-05T02:00:51.013Z,91.12
2017-12-05T02:03:19.328Z,91.19
2017-12-05T02:05:47.648Z,91.27
2017-12-05T02:08:16.032Z,91.36
2017-12-05T02:10:44.340Z,91.63
2017-12-05T02:13:12.687Z,91.76
2017-12-05T02:15:41.031Z,92.10
2017-12-05T02:18:10.112Z,92.07
2017-12-05T02:20:38.429Z,92.18
2017-12-05T02:23:06.760Z,92.03
2017-12-05T02:25:35.104Z,92.11
2017-12-05T02:28:03.415Z,92.25
2017-12-05T02:30:31.737Z,92.64
2017-12-05T02:33:00.375Z,93.05
2017-12-05T02:35:28.683Z,93.41
2017-12-05T02:37:57.780Z,93.43
2017-12-05T02:43:40.362Z,93.48
2017-12-05T02:46:08.711Z,93.53
2017-12-05T02:48:37.039Z,93.34
2017-12-05T02:51:05.356Z,93.40
2017-12-05T02:53:33.716Z,93.35
2017-12-05T02:56:02.803Z,93.28
2017-12-05T02:58:31.884Z,93.39
2017-12-05T03:01:00.234Z,93.25
2017-12-05T03:03:28.552Z,93.22
2017-12-05T03:05:57.635Z,93.29
2017-12-05T03:08:25.975Z,93.14
2017-12-05T03:10:54.303Z,92.98
2017-12-05T03:13:23.380Z,92.93
2017-12-05T03:15:51.707Z,92.99
2017-12-05T03:18:20.031Z,92.91
2017-12-05T03:20:48.359Z,92.76
2017-12-05T03:23:16.671Z,93.04
2017-12-05T03:25:45.049Z,93.01
2017-12-05T03:28:13.364Z,92.93
2017-12-05T03:30:42.444Z,93.03
2017-12-05T03:33:10.795Z,93.06
2017-12-05T03:35:39.123Z,92.99
2017-12-05T03:38:08.210Z,93.43
2017-12-05T03:40:37.403Z,93.66
2017-12-05T03:43:05.715Z,93.61
2017-12-05T03:45:34.031Z,93.84
2017-12-05T03:48:02.380Z,94.03
2017-12-05T03:50:30.695Z,94.30
2017-12-05T03:52:59.018Z,94.22
2017-12-05T03:55:27.364Z,94.03
2017-12-05T03:57:55.679Z,94.11
2017-12-05T04:00:23.999Z,94.20
2017-12-05T04:02:52.332Z,94.26
2017-12-05T04:05:20.668Z,94.38
2017-12-05T04:07:49.023Z,94.42
2017-12-05T04:10:17.339Z,94.17
2017-12-05T04:12:46.449Z,94.13
2017-12-05T04:15:15.531Z,94.02
2017-12-05T04:17:44.657Z,93.91
2017-12-05T04:20:12.999Z,93.63
2017-12-05T04:22:41.330Z,93.63
2017-12-05T04:25:09.656Z,93.58
2017-12-05T04:27:38.007Z,93.75
2017-12-05T04:30:06.384Z,93.82
2017-12-05T04:32:34.705Z,94.04
2017-12-05T04:35:03.809Z,94.12
2017-12-05T04:37:32.131Z,94.20
2017-12-05T04:40:01.211Z,94.18
2017-12-05T04:42:29.572Z,94.12
2017-12-05T04:44:57.905Z,93.92
2017-12-05T04:47:26.224Z,93.58
2017-12-05T04:49:54.558Z,93.54
2017-12-05T04:52:23.300Z,93.48
2017-12-05T04:54:52.430Z,93.42
2017-12-05T04:57:20.772Z,93.49
2017-12-05T04:59:49.107Z,93.48
2017-12-05T05:02:17.433Z,93.27
2017-12-05T05:04:45.743Z,93.44
2017-12-05T05:07:14.095Z,93.56
2017-12-05T05:09:42.421Z,93.84
2017-12-05T05:12:11.499Z,93.96
2017-12-05T05:14:39.848Z,94.29
2017-12-05T05:17:08.216Z,94.16
2017-12-05T05:19:36.535Z,94.42
2017-12-05T05:22:04.875Z,94.71
2017-12-05T05:24:33.185Z,94.77
2017-12-05T05:27:01.500Z,95.09
2017-12-05T05:29:30.591Z,95.19
2017-12-05T05:31:59.676Z,95.25
2017-12-05T05:34:28.783Z,95.13
2017-12-05T05:36:57.883Z,95.18
2017-12-05T05:39:26.975Z,95.23
2017-12-05T05:41:56.071Z,95.02
2017-12-05T05:44:24.440Z,94.86
2017-12-05T05:46:53.530Z,95.02
2017-12-05T05:49:21.843Z,95.07
2017-12-05T05:51:50.191Z,95.15
2017-12-05T05:54:19.264Z,95.23
2017-12-05T05:56:47.588Z,95.32
2017-12-05T05:59:15.962Z,95.52
2017-12-05T06:01:44.283Z,95.40
2017-12-05T06:04:12.613Z,95.15
2017-12-05T06:06:40.943Z,94.97
2017-12-05T06:09:09.268Z,94.99
2017-12-05T06:11:37.588Z,94.92
2017-12-05T06:14:05.928Z,94.66
2017-12-05T06:16:34.251Z,94.79
2017-12-05T06:19:02.608Z,94.60
2017-12-05T06:21:30.929Z,94.58
2017-12-05T06:23:59.254Z,94.17
2017-12-05T06:26:27.603Z,93.95
2017-12-05T06:28:56.684Z,93.84
2017-12-05T06:31:25.016Z,93.79
2017-12-05T06:33:53.350Z,93.73
2017-12-05T06:36:22.428Z,93.67
2017-12-05T06:38:50.768Z,93.79
2017-12-05T06:41:19.088Z,93.73
2017-12-05T06:43:47.399Z,93.70
2017-12-05T06:46:15.777Z,93.72
2017-12-05T06:48:44.105Z,93.44
2017-12-05T06:51:12.432Z,93.64
2017-12-05T06:53:40.769Z,94.05
2017-12-05T06:56:09.088Z,94.35
2017-12-05T06:58:37.399Z,94.54
2017-12-05T07:01:05.736Z,94.71
2017-12-05T07:03:34.079Z,94.55
2017-12-05T07:06:02.450Z,94.40
2017-12-05T07:08:30.771Z,94.08
2017-12-05T07:10:59.084Z,93.98
2017-12-05T07:13:27.444Z,93.83
2017-12-05T07:15:55.776Z,93.70
2017-12-05T07:18:24.100Z,93.59
2017-12-05T07:20:53.038Z,93.48
2017-12-05T07:23:21.348Z,93.27
2017-12-05T07:25:49.659Z,92.93
2017-12-05T07:28:17.994Z,92.57
2017-12-05T07:30:47.073Z,92.53
2017-12-05T07:33:15.394Z,92.49
2017-12-05T07:35:43.743Z,92.30
2017-12-05T07:38:12.828Z,92.13
2017-12-05T07:40:41.915Z,92.10
2017-12-05T07:43:10.253Z,91.78
2017-12-05T07:45:38.564Z,91.34
2017-12-05T07:48:06.871Z,90.99
2017-12-05T07:50:35.987Z,90.91
2017-12-05T07:53:04.300Z,90.54
2017-12-05T07:55:32.620Z,90.78
2017-12-05T07:58:01.719Z,90.21
2017-12-05T08:00:30.952Z,90.17
2017-12-05T08:02:59.294Z,89.82
2017-12-05T08:05:27.611Z,89.78
2017-12-05T08:07:55.933Z,90.25
2017-12-05T08:10:24.271Z,89.99
2017-12-05T08:12:52.589Z,90.13
2017-12-05T08:15:20.903Z,89.82
2017-12-05T08:17:49.224Z,89.54
2017-12-05T08:20:17.551Z,89.78
2017-12-05T08:22:45.892Z,90.13
2017-12-05T08:25:14.221Z,90.71
2017-12-05T08:27:42.540Z,91.08
2017-12-05T08:30:10.876Z,91.46
2017-12-05T08:32:39.224Z,91.45
2017-12-05T08:35:08.316Z,91.91
2017-12-05T08:37:37.403Z,91.63
2017-12-05T08:40:06.517Z,91.60
2017-12-05T08:42:35.596Z,91.08
2017-12-05T08:45:04.684Z,90.97
2017-12-05T08:47:33.047Z,90.65
2017-12-05T08:50:01.364Z,90.61
2017-12-05T08:52:29.671Z,90.33
2017-12-05T08:54:58.018Z,90.16
2017-12-05T08:57:27.098Z,90.24
2017-12-05T08:59:56.184Z,91.01
2017-12-05T09:02:24.512Z,90.87
2017-12-05T09:04:52.865Z,90.98
2017-12-05T09:07:21.192Z,91.05
2017-12-05T09:09:49.605Z,91.05
2017-12-05T09:12:17.883Z,90.47
2017-12-05T09:14:46.972Z,90.71
2017-12-05T09:17:16.087Z,90.56
2017-12-05T09:19:45.785Z,90.72
2017-12-05T09:22:14.871Z,91.02
2017-12-05T09:24:43.218Z,90.44
2017-12-05T09:27:11.540Z,90.91
2017-12-05T09:29:40.696Z,90.88
2017-12-05T09:32:08.992Z,90.55
2017-12-05T09:34:37.321Z,89.58
2017-12-05T09:37:05.675Z,89.55
2017-12-05T09:39:34.771Z,89.68
2017-12-05T09:42:03.860Z,88.85
2017-12-05T09:44:32.956Z,88.32
2017-12-05T09:47:02.042Z,87.52
2017-12-05T09:49:31.132Z,87.67
2017-12-05T09:51:59.479Z,87.95
2017-12-05T09:54:27.804Z,87.51
2017-12-05T09:56:56.915Z,86.92
2017-12-05T09:59:25.256Z,86.65
2017-12-05T10:01:53.584Z,85.83
2017-12-05T10:04:21.907Z,85.58
2017-12-05T10:06:50.264Z,85.59
2017-12-05T10:09:18.569Z,85.36
2017-12-05T10:11:46.891Z,84.17
2017-12-05T10:14:15.223Z,84.83
2017-12-05T10:16:43.539Z,85.32
2017-12-05T10:19:11.853Z,85.00
2017-12-05T10:21:40.203Z,84.87
2017-12-05T10:24:08.520Z,84.91
2017-12-05T10:26:36.867Z,85.24
2017-12-05T10:29:05.200Z,85.96
2017-12-05T10:31:34.275Z,86.15
2017-12-05T10:34:02.628Z,85.39
2017-12-05T10:36:30.956Z,86.25
2017-12-05T10:39:00.046Z,86.57
2017-12-05T10:41:28.487Z,86.36
2017-12-05T10:43:56.815Z,86.57
2017-12-05T10:46:25.898Z,86.57
2017-12-05T10:48:54.305Z,85.86
2017-12-05T10:51:22.596Z,86.58
2017-12-05T10:53:50.915Z,86.32
2017-12-05T10:56:19.263Z,86.61
2017-12-05T10:58:47.606Z,86.64
2017-12-05T11:01:15.959Z,86.89
2017-12-05T11:03:44.281Z,87.23
2017-12-05T11:06:12.603Z,86.99
2017-12-05T11:08:40.966Z,87.31
2017-12-05T11:11:09.284Z,87.38
2017-12-05T11:13:38.371Z,87.21
2017-12-05T11:16:07.487Z,86.98
2017-12-05T11:18:36.579Z,87.02
2017-12-05T11:21:05.667Z,86.75
2017-12-05T11:23:34.787Z,86.49
2017-12-05T11:26:03.111Z,87.08
2017-12-05T11:28:31.443Z,87.15
2017-12-05T11:30:59.767Z,86.97
2017-12-05T11:33:28.095Z,86.50
2017-12-05T11:35:56.435Z,85.99
2017-12-05T11:38:24.779Z,85.57
2017-12-05T11:40:53.097Z,85.06
2017-12-05T11:43:21.419Z,84.82
2017-12-05T11:45:49.735Z,84.43
2017-12-05T11:48:18.078Z,84.27
2017-12-05T11:50:46.412Z,84.21
2017-12-05T11:53:15.501Z,84.01
2017-12-05T11:55:44.624Z,83.88
2017-12-05T11:58:12.979Z,84.01
2017-12-05T12:00:42.075Z,84.36
2017-12-05T12:03:11.194Z,84.60
2017-12-05T12:05:39.507Z,84.46
2017-12-05T12:08:07.848Z,84.65
2017-12-05T12:10:36.187Z,85.36
2017-12-05T12:13:04.507Z,85.20
2017-12-05T12:15:32.823Z,84.86
2017-12-05T12:18:01.175Z,84.77
2017-12-05T12:20:29.504Z,84.71
2017-12-05T12:22:57.827Z,84.67
2017-12-05T12:25:26.158Z,84.27
2017-12-05T12:27:54.498Z,84.43
2017-12-05T12:30:22.812Z,84.58
2017-12-05T12:32:51.138Z,84.08
2017-12-05T12:35:19.484Z,84.57
2017-12-05T12:37:48.579Z,83.95
2017-12-05T12:40:17.672Z,83.63
2017-12-05T12:42:46.800Z,83.89
2017-12-05T12:45:15.115Z,83.98
2017-12-05T12:47:43.443Z,84.20
2017-12-05T12:50:11.816Z,84.25
2017-12-05T12:52:40.947Z,84.04
2017-12-05T12:55:09.250Z,83.94
2017-12-05T12:57:37.597Z,83.98
2017-12-05T13:00:05.911Z,84.06
2017-12-05T13:02:34.236Z,84.27
2017-12-05T13:05:02.632Z,84.27
2017-12-05T13:07:30.952Z,84.10
2017-12-05T13:09:59.281Z,84.13
2017-12-05T13:12:27.635Z,84.24
2017-12-05T13:14:56.734Z,84.06
2017-12-05T13:17:25.055Z,84.27
2017-12-05T13:19:53.391Z,84.52
2017-12-05T13:22:21.723Z,84.46
2017-12-05T13:24:50.046Z,84.22
2017-12-05T13:27:18.388Z,84.03
2017-12-05T13:29:46.709Z,84.34
2017-12-05T13:32:15.038Z,84.18
2017-12-05T13:34:43.416Z,84.06
2017-12-05T13:37:11.732Z,84.49
2017-12-05T13:39:40.060Z,84.40
2017-12-05T13:42:08.428Z,84.25
2017-12-05T13:44:37.511Z,84.37
2017-12-05T13:47:05.829Z,84.26
2017-12-05T13:49:34.270Z,84.18
2017-12-05T13:52:02.587Z,84.07
2017-12-05T13:54:31.700Z,84.26
2017-12-05T13:57:00.813Z,84.60
2017-12-05T13:59:29.132Z,84.57
2017-12-05T14:01:57.452Z,84.84
2017-12-05T14:04:26.564Z,84.77
2017-12-05T14:06:54.881Z,85.22
2017-12-05T14:09:23.199Z,85.53
2017-12-05T14:11:52.314Z,85.17
2017-12-05T14:14:20.693Z,85.15
2017-12-05T14:16:49.019Z,85.20
2017-12-05T14:19:17.404Z,85.25
2017-12-05T14:21:45.735Z,85.19
2017-12-05T14:24:14.051Z,84.89
2017-12-05T14:26:42.415Z,85.06
2017-12-05T14:29:10.740Z,84.84
2017-12-05T14:31:39.823Z,85.28
2017-12-05T14:34:08.181Z,84.90
2017-12-05T14:36:36.520Z,84.93
2017-12-05T14:39:04.861Z,84.71
2017-12-05T14:41:33.203Z,84.62
2017-12-05T14:44:01.516Z,84.55
2017-12-05T14:46:29.860Z,84.48
2017-12-05T14:48:58.203Z,84.49
2017-12-05T14:51:26.520Z,84.20
2017-12-05T14:53:54.880Z,84.19
2017-12-05T14:56:23.248Z,84.16
2017-12-05T14:58:51.597Z,83.84
2017-12-05T15:01:20.680Z,83.90
2017-12-05T15:03:49.039Z,83.73
2017-12-05T15:06:17.368Z,83.61
2017-12-05T15:08:45.701Z,83.44
2017-12-05T15:11:14.056Z,85.11
2017-12-05T15:13:42.412Z,82.89
2017-12-05T15:16:10.744Z,82.68
2017-12-05T15:18:39.067Z,82.85
2017-12-05T15:21:07.417Z,83.01
2017-12-05T15:23:36.507Z,82.76
2017-12-05T15:26:05.588Z,82.63
2017-12-05T15:28:33.935Z,82.91
2017-12-05T15:31:02.256Z,82.75
2017-12-05T15:33:31.351Z,82.33
2017-12-05T15:36:00.465Z,82.55
2017-12-05T15:38:28.783Z,82.01
2017-12-05T15:40:57.101Z,81.82
2017-12-05T15:43:26.228Z,81.68
2017-12-05T15:45:54.567Z,81.52
2017-12-05T15:48:22.893Z,81.70
2017-12-05T15:50:51.252Z,81.48
2017-12-05T15:53:19.598Z,80.82
2017-12-05T15:55:47.936Z,81.26
2017-12-05T15:58:16.291Z,80.79
2017-12-05T16:00:44.621Z,80.93
2017-12-05T16:03:12.952Z,80.72
2017-12-05T16:05:41.295Z,80.71
2017-12-05T16:08:09.616Z,80.19
2017-12-05T16:10:37.934Z,79.95
2017-12-05T16:13:06.305Z,79.85
2017-12-05T16:15:35.888Z,79.79
2017-12-05T16:18:06.645Z,79.36
2017-12-05T16:20:36.285Z,79.39
2017-12-05T16:23:05.415Z,79.17
2017-12-05T16:25:33.845Z,79.15
2017-12-05T16:28:02.185Z,79.38
2017-12-05T16:30:30.535Z,79.32
2017-12-05T16:32:58.897Z,79.47
2017-12-05T16:35:27.215Z,79.64
2017-12-05T16:37:55.531Z,79.40
2017-12-05T16:40:23.888Z,78.95
2017-12-05T16:42:52.220Z,79.04
2017-12-05T16:45:20.555Z,79.24
2017-12-05T16:47:48.936Z,79.28
2017-12-05T16:50:17.256Z,79.05
2017-12-05T16:52:45.592Z,79.13
2017-12-05T16:55:13.919Z,78.89
2017-12-05T16:57:42.269Z,78.79
2017-12-05T17:00:11.363Z,78.78
2017-12-05T17:02:40.460Z,78.91
2017-12-05T17:05:09.568Z,79.17
2017-12-05T17:07:38.852Z,79.02
2017-12-05T17:10:07.171Z,79.18
2017-12-05T17:12:35.515Z,78.92
2017-12-05T17:15:04.604Z,79.19
2017-12-05T17:17:32.932Z,79.14
2017-12-05T17:20:01.298Z,78.99
2017-12-05T17:22:29.619Z,79.10
2017-12-05T17:24:57.987Z,79.34
2017-12-05T17:27:26.299Z,79.12
2017-12-05T17:29:55.402Z,79.48
2017-12-05T17:32:24.503Z,79.37
2017-12-05T17:34:52.832Z,79.48
2017-12-05T17:37:21.168Z,79.49
2017-12-05T17:39:49.487Z,79.51
2017-12-05T17:42:17.807Z,79.31
2017-12-05T17:44:46.152Z,79.44
2017-12-05T17:47:14.484Z,79.13
2017-12-05T17:49:42.810Z,79.09
2017-12-05T17:52:11.169Z,79.00
2017-12-05T17:54:40.111Z,78.65
2017-12-05T17:57:09.207Z,78.26
2017-12-05T17:59:38.332Z,78.25
2017-12-05T18:02:06.692Z,78.48
2017-12-05T18:04:36.328Z,77.79
2017-12-05T18:07:07.280Z,78.41
2017-12-05T18:09:40.172Z,79.09
2017-12-05T18:12:15.237Z,79.19
2017-12-05T18:14:53.047Z,78.95
2017-12-05T18:17:22.167Z,79.09
2017-12-05T18:19:50.491Z,78.80
2017-12-05T18:22:18.819Z,78.90
2017-12-05T18:24:55.699Z,78.97
2017-12-05T18:27:29.729Z,78.91
2017-12-05T18:29:58.464Z,79.17
2017-12-05T18:32:26.784Z,78.84
2017-12-05T18:34:55.115Z,79.27
2017-12-05T18:37:23.427Z,79.43
2017-12-05T18:39:51.772Z,80.03
2017-12-05T18:42:21.991Z,79.75
2017-12-05T18:44:53.666Z,79.58
2017-12-05T18:47:21.980Z,79.83
2017-12-05T18:49:50.327Z,80.12
2017-12-05T18:52:19.429Z,79.39
2017-12-05T18:54:47.757Z,79.19
2017-12-05T18:57:16.114Z,78.91
2017-12-05T18:59:44.861Z,79.43
2017-12-05T19:02:13.960Z,79.31
2017-12-05T19:04:43.397Z,79.26
2017-12-05T19:07:11.772Z,78.58
2017-12-05T19:09:40.087Z,79.29
2017-12-05T19:12:08.436Z,79.26
2017-12-05T19:14:36.763Z,79.64
2017-12-05T19:17:05.871Z,79.68
2017-12-05T19:19:35.001Z,79.08
2017-12-05T19:22:03.326Z,79.13
2017-12-05T19:24:31.659Z,79.60
2017-12-05T19:26:59.988Z,79.58
2017-12-05T19:29:33.001Z,79.80
2017-12-05T19:32:02.197Z,80.03
2017-12-05T19:34:30.520Z,80.01
2017-12-05T19:36:58.839Z,80.30
2017-12-05T19:39:27.186Z,80.16
2017-12-05T19:41:55.561Z,79.85
2017-12-05T19:44:23.884Z,80.03
2017-12-05T19:46:52.212Z,80.15
2017-12-05T19:49:21.311Z,80.25
2017-12-05T19:51:49.652Z,80.01
2017-12-05T19:54:17.972Z,79.99
2017-12-05T19:56:46.312Z,80.06
2017-12-05T19:59:14.632Z,79.94
2017-12-05T20:01:42.978Z,80.26
2017-12-05T20:04:12.070Z,80.39
2017-12-05T20:06:40.851Z,80.29
2017-12-05T20:09:09.201Z,80.32
2017-12-05T20:11:37.548Z,80.49
2017-12-05T20:14:05.863Z,80.32
2017-12-05T20:16:34.211Z,80.17
2017-12-05T20:19:02.531Z,80.33
2017-12-05T20:21:30.851Z,80.40
2017-12-05T20:23:59.193Z,80.57
2017-12-05T20:26:27.523Z,80.53
2017-12-05T20:28:56.887Z,80.31
2017-12-05T20:31:25.219Z,80.03
2017-12-05T20:33:54.311Z,80.10
2017-12-05T20:36:23.421Z,79.79
2017-12-05T20:38:51.786Z,79.89
2017-12-05T20:41:20.875Z,79.74
2017-12-05T20:43:49.992Z,80.01
2017-12-05T20:46:18.365Z,79.72
2017-12-05T20:48:46.693Z,79.79
2017-12-05T20:51:15.100Z,79.45
2017-12-05T20:53:44.228Z,79.21
2017-12-05T20:56:12.600Z,79.37
2017-12-05T20:58:40.939Z,78.99
2017-12-05T21:01:09.256Z,79.09
2017-12-05T21:03:37.599Z,79.08
2017-12-05T21:06:05.919Z,78.95
2017-12-05T21:08:34.260Z,79.24
2017-12-05T21:11:02.595Z,78.80
2017-12-05T21:13:30.915Z,78.41
2017-12-05T21:16:00.021Z,78.21
2017-12-05T21:18:29.168Z,78.11
2017-12-05T21:20:57.491Z,77.53
2017-12-05T21:26:23.813Z,77.19
2017-12-05T21:28:52.134Z,77.70
2017-12-05T21:31:20.490Z,77.51
2017-12-05T21:33:48.812Z,77.50
2017-12-05T21:36:17.148Z,77.41
2017-12-05T21:38:45.500Z,77.34
2017-12-05T21:41:13.858Z,77.13
2017-12-05T21:43:42.186Z,77.35
2017-12-05T21:46:10.512Z,77.47
2017-12-05T21:48:38.856Z,77.36
2017-12-05T21:51:07.943Z,77.45
2017-12-05T21:53:37.059Z,77.58
2017-12-05T21:56:05.392Z,77.75
2017-12-05T21:58:33.711Z,77.53
2017-12-05T22:01:02.079Z,77.81
2017-12-05T22:03:31.163Z,77.85
2017-12-05T22:06:00.260Z,77.72
2017-12-05T22:08:29.386Z,77.66
2017-12-05T22:10:57.728Z,77.86
2017-12-05T22:13:26.054Z,78.23
2017-12-05T22:15:54.403Z,78.38
2017-12-05T22:18:23.520Z,78.62
2017-12-05T22:20:51.841Z,78.92
2017-12-05T22:23:20.157Z,79.11
2017-12-05T22:25:48.515Z,78.98
2017-12-05T22:28:17.624Z,79.03
2017-12-05T22:30:46.735Z,79.00
2017-12-05T22:33:15.055Z,79.22
2017-12-05T22:35:43.403Z,79.25
2017-12-05T22:38:11.724Z,79.38
2017-12-05T22:40:40.044Z,79.24
2017-12-05T22:43:08.400Z,79.03
2017-12-05T22:45:37.511Z,78.17
2017-12-05T22:48:06.596Z,78.36
2017-12-05T22:50:35.733Z,77.25
2017-12-05T22:53:04.056Z,77.10
2017-12-05T22:55:32.440Z,76.90
2017-12-05T22:58:01.568Z,77.09
2017-12-05T23:00:29.908Z,77.03
2017-12-05T23:02:59.009Z,77.09
2017-12-05T23:05:28.145Z,77.33
2017-12-05T23:07:56.463Z,77.17
2017-12-05T23:10:24.780Z,77.13
2017-12-05T23:12:53.147Z,77.20
2017-12-05T23:15:22.227Z,77.26
2017-12-05T23:17:51.328Z,77.17
2017-12-05T23:20:19.695Z,77.10
2017-12-05T23:22:48.025Z,77.20
2017-12-05T23:25:16.359Z,76.87
2017-12-05T23:27:44.708Z,77.10
2017-12-05T23:30:13.055Z,77.19
2017-12-05T23:32:41.406Z,77.04
2017-12-05T23:35:10.495Z,77.06
2017-12-05T23:37:39.579Z,77.13
2017-12-05T23:40:07.976Z,76.94
2017-12-05T23:42:37.060Z,76.98
2017-12-05T23:45:05.384Z,77.01
2017-12-05T23:47:33.722Z,77.12
2017-12-05T23:50:02.847Z,77.12
2017-12-05T23:52:31.169Z,76.94
2017-12-05T23:54:59.508Z,76.60
2017-12-05T23:57:27.869Z,76.87
2017-12-05T23:59:56.792Z,76.88
